createdAt,value
2023-04-18T00:01:54.077Z,13.76
2023-04-18T00:04:57.170Z,13.78
2023-04-18T00:07:59.590Z,13.70
2023-04-18T00:11:02.465Z,13.72
2023-04-18T00:14:06.314Z,13.71
2023-04-18T00:17:09.541Z,13.70
2023-04-18T00:20:12.746Z,13.83
2023-04-18T00:23:16.369Z,13.74
2023-04-18T00:26:18.730Z,13.64
2023-04-18T00:29:23.269Z,13.57
2023-04-18T00:32:28.478Z,13.51
2023-04-18T00:35:32.126Z,13.55
2023-04-18T00:38:35.465Z,13.50
2023-04-18T00:41:38.604Z,13.49
2023-04-18T00:44:41.120Z,13.43
2023-04-18T00:47:45.845Z,13.43
2023-04-18T00:50:48.237Z,13.44
2023-04-18T00:53:51.457Z,13.41
2023-04-18T00:56:53.835Z,13.41
2023-04-18T00:59:56.785Z,13.36
2023-04-18T01:02:59.444Z,13.41
2023-04-18T01:06:02.631Z,13.37
2023-04-18T01:09:07.876Z,13.44
2023-04-18T01:12:10.909Z,13.42
2023-04-18T01:15:13.257Z,13.39
2023-04-18T01:18:16.919Z,13.34
2023-04-18T01:21:20.283Z,13.39
2023-04-18T01:24:25.868Z,13.38
2023-04-18T01:27:28.166Z,13.37
2023-04-18T01:30:31.126Z,13.40
2023-04-18T01:33:34.010Z,13.50
2023-04-18T01:36:37.938Z,13.42
2023-04-18T01:39:40.276Z,13.44
2023-04-18T01:42:43.140Z,13.36
2023-04-18T01:45:46.310Z,13.32
2023-04-18T01:48:49.213Z,13.34
2023-04-18T01:51:51.750Z,13.38
2023-04-18T01:54:57.112Z,13.36
2023-04-18T01:57:59.432Z,13.31
2023-04-18T02:01:02.709Z,13.26
2023-04-18T02:04:05.373Z,13.47
2023-04-18T02:07:08.172Z,13.41
2023-04-18T02:10:11.327Z,13.32
2023-04-18T02:13:15.564Z,13.27
2023-04-18T02:16:19.838Z,13.39
2023-04-18T02:19:24.287Z,13.33
2023-04-18T02:22:26.641Z,13.27
2023-04-18T02:25:29.828Z,13.23
2023-04-18T02:28:32.533Z,13.27
2023-04-18T02:31:39.955Z,13.27
2023-04-18T02:34:42.249Z,13.18
2023-04-18T02:37:45.184Z,13.19
2023-04-18T02:40:48.182Z,13.19
2023-04-18T02:43:51.062Z,13.20
2023-04-18T02:46:53.644Z,13.24
2023-04-18T02:49:56.822Z,13.33
2023-04-18T02:53:01.714Z,13.32
2023-04-18T02:56:05.404Z,13.32
2023-04-18T02:59:08.646Z,13.29
2023-04-18T03:02:12.496Z,13.40
2023-04-18T03:05:17.080Z,13.37
2023-04-18T03:08:20.158Z,13.31
2023-04-18T03:11:22.529Z,13.28
2023-04-18T03:14:25.533Z,13.22
2023-04-18T03:17:28.668Z,13.22
2023-04-18T03:20:31.547Z,13.20
2023-04-18T03:23:33.924Z,13.30
2023-04-18T03:26:38.054Z,13.20
2023-04-18T03:29:41.171Z,13.12
2023-04-18T03:32:44.470Z,13.12
2023-04-18T03:35:46.987Z,13.13
2023-04-18T03:38:50.096Z,13.15
2023-04-18T03:41:53.043Z,13.24
2023-04-18T03:44:56.436Z,13.21
2023-04-18T03:47:59.188Z,13.15
2023-04-18T03:51:02.701Z,13.24
2023-04-18T03:54:06.392Z,13.22
2023-04-18T03:57:09.346Z,13.32
2023-04-18T04:00:12.603Z,13.27
2023-04-18T04:03:18.389Z,13.25
2023-04-18T04:06:21.456Z,13.19
2023-04-18T04:09:24.105Z,13.17
2023-04-18T04:12:27.202Z,13.25
2023-04-18T04:15:29.962Z,13.20
2023-04-18T04:18:33.244Z,13.15
2023-04-18T04:21:36.067Z,13.10
2023-04-18T04:24:39.590Z,12.99
2023-04-18T04:27:42.789Z,13.06
2023-04-18T04:30:46.471Z,13.02
2023-04-18T04:33:49.065Z,12.98
2023-04-18T04:36:51.852Z,13.07
2023-04-18T04:39:56.499Z,13.05
2023-04-18T04:43:01.455Z,13.09
2023-04-18T04:46:07.487Z,13.05
2023-04-18T04:49:10.582Z,12.97
2023-04-18T04:52:13.241Z,13.04
2023-04-18T04:55:15.909Z,13.10
2023-04-18T04:58:19.126Z,13.14
2023-04-18T05:01:24.610Z,13.16
2023-04-18T05:04:27.378Z,13.24
2023-04-18T05:07:30.812Z,13.22
2023-04-18T05:10:34.767Z,13.24
2023-04-18T05:13:37.317Z,13.30
2023-04-18T05:16:39.939Z,13.31
2023-04-18T05:19:44.204Z,13.28
2023-04-18T05:22:46.885Z,13.31
2023-04-18T05:25:49.959Z,13.32
2023-04-18T05:28:52.545Z,13.34
2023-04-18T05:31:55.219Z,13.37
2023-04-18T05:34:57.840Z,13.45
2023-04-18T05:38:00.691Z,13.51
2023-04-18T05:41:03.341Z,13.56
2023-04-18T05:44:06.075Z,13.58
2023-04-18T05:47:08.704Z,13.61
2023-04-18T05:50:11.379Z,13.61
2023-04-18T05:53:13.971Z,13.65
2023-04-18T05:56:16.567Z,13.77
2023-04-18T05:59:19.205Z,13.94
2023-04-18T06:02:22.237Z,14.02
2023-04-18T06:05:25.591Z,14.05
2023-04-18T06:08:28.176Z,14.15
2023-04-18T06:11:33.621Z,14.20
2023-04-18T06:14:35.894Z,14.25
2023-04-18T06:17:38.866Z,14.33
2023-04-18T06:20:42.191Z,14.38
2023-04-18T06:23:45.052Z,14.51
2023-04-18T06:26:47.363Z,14.54
2023-04-18T06:29:50.261Z,14.59
2023-04-18T06:32:52.994Z,14.73
2023-04-18T06:35:56.072Z,14.75
2023-04-18T06:38:58.405Z,14.65
2023-04-18T06:42:02.505Z,14.72
2023-04-18T06:45:06.468Z,14.97
2023-04-18T06:48:10.870Z,15.11
2023-04-18T06:51:14.146Z,15.30
2023-04-18T06:54:17.014Z,15.57
2023-04-18T06:57:19.359Z,15.65
2023-04-18T07:00:22.369Z,15.67
2023-04-18T07:03:24.863Z,15.79
2023-04-18T07:06:27.895Z,15.90
2023-04-18T07:09:30.190Z,16.11
2023-04-18T07:12:33.853Z,16.25
2023-04-18T07:15:36.293Z,16.32
2023-04-18T07:18:39.227Z,16.56
2023-04-18T07:21:44.934Z,16.57
2023-04-18T07:24:47.907Z,16.61
2023-04-18T07:27:50.230Z,16.73
2023-04-18T07:30:53.143Z,16.81
2023-04-18T07:33:55.670Z,16.83
2023-04-18T07:36:58.800Z,16.88
2023-04-18T07:40:01.126Z,17.00
2023-04-18T07:43:04.040Z,17.02
2023-04-18T07:46:06.555Z,17.10
2023-04-18T07:49:09.433Z,17.26
2023-04-18T07:52:12.680Z,17.39
2023-04-18T07:55:15.870Z,17.42
2023-04-18T07:58:18.163Z,17.42
2023-04-18T08:01:24.209Z,17.73
2023-04-18T08:04:29.749Z,17.79
2023-04-18T08:07:32.788Z,18.00
2023-04-18T08:10:35.884Z,17.97
2023-04-18T08:13:38.526Z,17.98
2023-04-18T08:16:41.286Z,18.03
2023-04-18T08:19:45.595Z,18.33
2023-04-18T08:23:05.092Z,18.55
2023-04-18T08:26:09.309Z,18.72
2023-04-18T08:29:12.478Z,19.69
2023-04-18T08:32:15.348Z,19.66
2023-04-18T08:35:17.922Z,19.71
2023-04-18T08:38:20.674Z,19.75
2023-04-18T08:41:27.042Z,20.33
2023-04-18T08:44:29.907Z,20.64
2023-04-18T08:47:35.203Z,20.73
2023-04-18T08:50:37.834Z,20.92
2023-04-18T08:53:42.167Z,21.59
2023-04-18T08:56:45.036Z,22.64
2023-04-18T08:59:50.364Z,23.69
2023-04-18T09:02:59.538Z,24.72
2023-04-18T09:06:16.154Z,25.55
2023-04-18T09:09:18.820Z,24.90
2023-04-18T09:12:22.847Z,24.19
2023-04-18T09:15:29.822Z,23.32
2023-04-18T09:18:32.544Z,22.89
2023-04-18T09:21:36.262Z,22.67
2023-04-18T09:24:40.133Z,22.53
2023-04-18T09:27:42.672Z,22.88
2023-04-18T09:30:46.672Z,22.98
2023-04-18T09:33:54.525Z,22.93
2023-04-18T09:37:10.663Z,23.01
2023-04-18T09:40:16.988Z,22.74
2023-04-18T09:43:20.837Z,22.60
2023-04-18T09:46:23.650Z,22.73
2023-04-18T09:49:26.974Z,23.58
2023-04-18T09:52:32.804Z,24.53
2023-04-18T09:55:35.704Z,25.37
2023-04-18T09:58:41.073Z,25.58
2023-04-18T10:01:47.413Z,25.21
2023-04-18T10:04:53.453Z,24.76
2023-04-18T10:07:56.292Z,24.24
2023-04-18T10:10:59.422Z,23.97
2023-04-18T10:14:03.350Z,23.85
2023-04-18T10:17:07.409Z,24.07
2023-04-18T10:20:15.455Z,24.25
2023-04-18T10:23:37.916Z,24.10
2023-04-18T10:26:46.990Z,24.03
2023-04-18T10:29:51.481Z,23.81
2023-04-18T10:32:55.543Z,23.40
2023-04-18T10:35:59.951Z,23.07
2023-04-18T10:39:21.616Z,23.07
2023-04-18T10:42:54.009Z,22.69
2023-04-18T10:46:23.859Z,22.29
2023-04-18T10:49:36.167Z,22.24
2023-04-18T10:52:38.555Z,22.15
2023-04-18T10:55:44.720Z,22.14
2023-04-18T10:58:51.293Z,22.15
2023-04-18T11:01:59.882Z,22.24
2023-04-18T11:05:04.840Z,22.12
2023-04-18T11:08:21.777Z,21.97
2023-04-18T11:11:24.669Z,22.07
2023-04-18T11:14:39.642Z,22.26
2023-04-18T11:17:41.998Z,22.04
2023-04-18T11:20:49.726Z,21.98
2023-04-18T11:23:52.104Z,21.64
2023-04-18T11:26:56.077Z,21.62
2023-04-18T11:29:58.999Z,21.28
2023-04-18T11:33:05.082Z,20.96
2023-04-18T11:36:07.681Z,20.94
2023-04-18T11:39:10.690Z,20.94
2023-04-18T11:42:13.074Z,21.13
2023-04-18T11:45:16.013Z,21.27
2023-04-18T11:48:19.020Z,21.16
2023-04-18T11:51:31.693Z,21.10
2023-04-18T11:54:37.663Z,21.13
2023-04-18T11:57:41.104Z,20.94
2023-04-18T12:00:43.512Z,20.69
2023-04-18T12:04:02.880Z,20.47
2023-04-18T12:07:05.569Z,20.33
2023-04-18T12:10:09.698Z,20.14
2023-04-18T12:13:12.342Z,20.41
2023-04-18T12:16:15.280Z,20.37
2023-04-18T12:19:17.844Z,20.71
2023-04-18T12:22:23.914Z,20.88
2023-04-18T12:25:27.732Z,20.90
2023-04-18T12:28:30.993Z,21.18
2023-04-18T12:31:33.452Z,21.15
2023-04-18T12:34:36.359Z,21.15
2023-04-18T12:37:38.657Z,21.02
2023-04-18T12:40:41.536Z,20.84
2023-04-18T12:43:43.828Z,20.66
2023-04-18T12:46:46.717Z,20.44
2023-04-18T12:49:49.047Z,20.29
2023-04-18T12:52:53.333Z,20.40
2023-04-18T12:55:55.631Z,20.22
2023-04-18T12:58:58.504Z,20.08
2023-04-18T13:02:00.893Z,19.97
2023-04-18T13:05:04.617Z,19.98
2023-04-18T13:08:16.321Z,20.01
2023-04-18T13:11:22.463Z,19.94
2023-04-18T13:14:24.901Z,20.34
2023-04-18T13:17:27.812Z,20.58
2023-04-18T13:20:30.657Z,21.37
2023-04-18T13:23:33.559Z,21.73
2023-04-18T13:26:37.618Z,21.97
2023-04-18T13:29:41.758Z,22.48
2023-04-18T13:32:44.159Z,22.86
2023-04-18T13:35:47.293Z,23.21
2023-04-18T13:38:50.386Z,23.39
2023-04-18T13:41:53.327Z,23.34
2023-04-18T13:44:55.609Z,23.30
2023-04-18T13:47:58.645Z,22.91
2023-04-18T13:51:02.449Z,22.64
2023-04-18T13:54:05.384Z,22.36
2023-04-18T13:57:11.664Z,22.30
2023-04-18T14:00:15.209Z,22.30
2023-04-18T14:03:17.904Z,22.39
2023-04-18T14:06:21.072Z,22.56
2023-04-18T14:09:23.919Z,22.51
2023-04-18T14:12:26.904Z,22.32
2023-04-18T14:15:30.107Z,22.28
2023-04-18T14:18:32.862Z,22.04
2023-04-18T14:21:35.968Z,21.80
2023-04-18T14:24:38.609Z,21.61
2023-04-18T14:27:41.336Z,21.47
2023-04-18T14:30:44.273Z,21.46
2023-04-18T14:33:46.873Z,21.28
2023-04-18T14:36:49.440Z,21.22
2023-04-18T14:39:52.018Z,21.12
2023-04-18T14:42:54.615Z,20.87
2023-04-18T14:45:58.993Z,20.76
2023-04-18T14:49:02.357Z,20.68
2023-04-18T14:52:05.081Z,20.70
2023-04-18T14:55:08.490Z,20.76
2023-04-18T14:58:11.133Z,20.58
2023-04-18T15:01:13.733Z,20.45
2023-04-18T15:04:16.519Z,20.28
2023-04-18T15:07:19.457Z,20.27
2023-04-18T15:10:22.599Z,20.31
2023-04-18T15:13:25.569Z,20.23
2023-04-18T15:16:28.343Z,19.95
2023-04-18T15:19:31.326Z,19.65
2023-04-18T15:22:34.356Z,19.52
2023-04-18T15:25:36.986Z,19.59
2023-04-18T15:28:39.680Z,19.53
2023-04-18T15:31:42.276Z,19.39
2023-04-18T15:34:44.953Z,19.41
2023-04-18T15:37:47.589Z,19.12
2023-04-18T15:40:50.233Z,19.19
2023-04-18T15:43:53.006Z,19.05
2023-04-18T15:46:55.723Z,18.97
2023-04-18T15:49:58.422Z,18.75
2023-04-18T15:53:01.946Z,18.62
2023-04-18T15:56:06.006Z,18.51
2023-04-18T15:59:10.967Z,18.62
2023-04-18T16:02:13.593Z,18.59
2023-04-18T16:05:16.301Z,18.46
2023-04-18T16:08:18.878Z,18.59
2023-04-18T16:11:21.882Z,18.41
2023-04-18T16:14:24.898Z,18.56
2023-04-18T16:17:27.542Z,18.28
2023-04-18T16:20:30.176Z,18.23
2023-04-18T16:23:32.890Z,18.17
2023-04-18T16:26:36.221Z,18.15
2023-04-18T16:29:44.181Z,17.93
2023-04-18T16:32:46.953Z,17.77
2023-04-18T16:35:49.587Z,17.99
2023-04-18T16:38:54.499Z,17.74
2023-04-18T16:41:57.724Z,17.58
2023-04-18T16:45:03.878Z,17.55
2023-04-18T16:48:06.573Z,17.50
2023-04-18T16:51:09.162Z,17.42
2023-04-18T16:54:14.884Z,17.35
2023-04-18T16:57:17.901Z,17.34
2023-04-18T17:00:21.155Z,17.26
2023-04-18T17:03:25.925Z,17.42
2023-04-18T17:06:30.883Z,17.32
2023-04-18T17:09:34.233Z,17.20
2023-04-18T17:12:37.603Z,17.17
2023-04-18T17:15:40.526Z,17.16
2023-04-18T17:18:43.165Z,17.08
2023-04-18T17:21:46.377Z,17.02
2023-04-18T17:24:49.038Z,16.95
2023-04-18T17:27:51.630Z,16.90
2023-04-18T17:30:54.303Z,16.81
2023-04-18T17:33:57.911Z,16.74
2023-04-18T17:37:00.467Z,16.70
2023-04-18T17:40:06.686Z,16.69
2023-04-18T17:43:10.720Z,16.63
2023-04-18T17:46:13.840Z,16.60
2023-04-18T17:49:16.829Z,16.56
2023-04-18T17:52:19.456Z,16.53
2023-04-18T17:55:22.078Z,16.47
2023-04-18T17:58:28.041Z,16.43
2023-04-18T18:01:31.710Z,16.36
2023-04-18T18:04:34.884Z,16.32
2023-04-18T18:07:38.351Z,16.26
2023-04-18T18:10:42.656Z,16.21
2023-04-18T18:13:46.700Z,16.14
2023-04-18T18:16:49.793Z,16.08
2023-04-18T18:19:52.097Z,16.04
2023-04-18T18:22:55.688Z,15.98
2023-04-18T18:25:58.103Z,15.95
2023-04-18T18:29:01.302Z,15.90
2023-04-18T18:32:03.642Z,15.85
2023-04-18T18:35:07.376Z,15.83
2023-04-18T18:38:10.112Z,15.80
2023-04-18T18:41:13.038Z,15.79
2023-04-18T18:44:15.386Z,15.83
2023-04-18T18:47:18.504Z,15.83
2023-04-18T18:50:20.941Z,15.83
2023-04-18T18:53:24.038Z,15.82
2023-04-18T18:56:26.369Z,15.81
2023-04-18T18:59:29.750Z,15.82
2023-04-18T19:02:32.173Z,15.79
2023-04-18T19:05:35.801Z,15.81
2023-04-18T19:08:38.131Z,15.79
2023-04-18T19:11:40.981Z,15.79
2023-04-18T19:14:43.252Z,15.80
2023-04-18T19:17:46.163Z,15.80
2023-04-18T19:20:49.468Z,15.78
2023-04-18T19:23:52.473Z,15.77
2023-04-18T19:26:54.828Z,15.77
2023-04-18T19:29:57.734Z,15.82
2023-04-18T19:33:00.064Z,15.87
2023-04-18T19:36:03.281Z,15.78
2023-04-18T19:39:05.742Z,15.77
2023-04-18T19:42:08.816Z,15.71
2023-04-18T19:45:12.056Z,15.71
2023-04-18T19:48:14.962Z,15.66
2023-04-18T19:51:17.356Z,15.65
2023-04-18T19:54:21.857Z,15.72
2023-04-18T19:57:25.914Z,15.77
2023-04-18T20:00:29.390Z,15.65
2023-04-18T20:03:35.061Z,15.61
2023-04-18T20:06:38.146Z,15.61
2023-04-18T20:09:41.180Z,15.74
2023-04-18T20:12:43.810Z,15.63
2023-04-18T20:15:46.479Z,15.73
2023-04-18T20:18:51.911Z,15.67
2023-04-18T20:21:55.518Z,15.65
2023-04-18T20:24:58.185Z,15.61
2023-04-18T20:28:00.974Z,15.61
2023-04-18T20:31:03.771Z,15.57
2023-04-18T20:34:06.691Z,15.43
2023-04-18T20:37:10.113Z,15.47
2023-04-18T20:40:12.867Z,15.42
2023-04-18T20:43:17.494Z,15.43
2023-04-18T20:46:20.273Z,15.38
2023-04-18T20:49:22.911Z,15.36
2023-04-18T20:52:25.759Z,15.38
2023-04-18T20:55:28.373Z,15.42
2023-04-18T20:58:31.081Z,15.44
2023-04-18T21:01:35.561Z,15.42
2023-04-18T21:04:39.976Z,15.35
2023-04-18T21:07:47.111Z,15.38
2023-04-18T21:10:51.805Z,15.34
2023-04-18T21:13:54.428Z,15.36
2023-04-18T21:16:57.591Z,15.33
2023-04-18T21:20:00.322Z,15.26
2023-04-18T21:23:03.061Z,15.34
2023-04-18T21:26:05.787Z,15.26
2023-04-18T21:29:08.370Z,15.21
2023-04-18T21:32:11.039Z,15.19
2023-04-18T21:35:13.655Z,15.16
2023-04-18T21:38:16.281Z,15.09
2023-04-18T21:41:19.318Z,15.10
2023-04-18T21:44:22.011Z,15.07
2023-04-18T21:47:25.932Z,15.01
2023-04-18T21:50:28.661Z,15.00
2023-04-18T21:53:31.298Z,14.99
2023-04-18T21:56:33.958Z,15.13
2023-04-18T21:59:36.607Z,15.01
2023-04-18T22:02:39.352Z,14.90
2023-04-18T22:05:43.051Z,14.93
2023-04-18T22:08:45.864Z,14.88
2023-04-18T22:11:48.817Z,14.84
2023-04-18T22:14:52.885Z,14.91
2023-04-18T22:17:55.834Z,14.76
2023-04-18T22:20:58.721Z,14.74
2023-04-18T22:24:01.458Z,14.74
2023-04-18T22:27:04.286Z,14.80
2023-04-18T22:30:07.206Z,14.81
2023-04-18T22:33:09.787Z,14.74
2023-04-18T22:36:12.407Z,14.72
2023-04-18T22:39:14.971Z,14.70
2023-04-18T22:42:17.719Z,14.74
2023-04-18T22:45:20.417Z,14.73
2023-04-18T22:48:23.725Z,14.74
2023-04-18T22:51:28.566Z,14.78
2023-04-18T22:54:31.221Z,14.80
2023-04-18T22:57:33.874Z,14.78
2023-04-18T23:00:36.585Z,14.75
2023-04-18T23:03:39.279Z,14.75
2023-04-18T23:06:41.897Z,14.76
2023-04-18T23:09:44.878Z,14.77
2023-04-18T23:12:47.805Z,14.76
2023-04-18T23:15:50.378Z,14.76
2023-04-18T23:18:52.946Z,14.77
2023-04-18T23:21:55.567Z,14.80
2023-04-18T23:24:58.206Z,14.80
2023-04-18T23:28:00.766Z,14.79
2023-04-18T23:31:03.379Z,14.76
2023-04-18T23:34:06.089Z,14.77
2023-04-18T23:37:09.719Z,14.78
2023-04-18T23:40:12.296Z,14.79
2023-04-18T23:43:15.098Z,14.78
2023-04-18T23:46:17.714Z,14.81
2023-04-18T23:49:20.497Z,14.80
2023-04-18T23:52:23.202Z,14.78
2023-04-18T23:55:25.932Z,14.77
2023-04-18T23:58:28.525Z,14.77
